CYKO

Akulivik Airport

Akulivik, Quebec, Canada
METAR CYKO 242000Z 15019KT 1 1/2SM BLSN SKC M26/M30 A2977 RMK BLSN1 SLP086
Observed Flight Rules
Feb-24 @ 20:00 UTC (14 minutes ago) Instrument Flight Rules
Wind Visibility Clouds Conditions
150° at 19 knots 1 1/2 miles
  • Clear skies
  • Blowing
  • Snow
Temperatures Readings
Current -26°C / -15°F
Dewpoint -30°C / -22°F
Humidity 69%
Altimeter 29.77" Hg
Pressure 1008.6 hPa
Elevation 9
METAR CYKO 242000Z 15019KT 1 1/2SM BLSN SKC M26/M30 A2977 RMK BLSN1 SLP086
Observed Flight Rules
Feb-24 @ 20:00 UTC
(14 minutes ago)
IFR
Wind Visibility
150° at 19 knots 1 1/2 miles
Clouds
  • Clear skies
Conditions
  • Blowing
  • Snow
Temperature Dewpoint
-26°C / -15°F -30°C / -22°F
Humidity Altimeter Pressure
69% 29.77" Hg 1008.6 hPa